^^
Your Local Weather - Clay, NY Station Historical Data
Daily Summary for August 22, 2017 Units:  English    Metric   Both
« Previous Day
Next Day »
Daily Weekly Monthly Yearly Custom
  High: Low: Average:
Temperature: 87.6 °F 64.1 °F 72.3 °F
Dew Point: 71.2 °F 62.3 °F 66.5 °F
Humidity: 94% 54% 83%
Wind Speed: 9.0mph 0.0mph 2.7mph
Wind Gust: 16.0mph - -
Wind- - SW
Pressure: 29.97 in 29.62 in -
Precipitation: 1.58 in    
Historical Graphs
 
 
Tabular Data for August 22, 2017
Time Temperature Dew Point Pressure Wind Wind Speed Wind Gust Humidity Rainfall Rate (Hourly) solar
00:02 67.3 °F 64.6 °F 29.97 in Calm     91% 0.00 in 0 W/m2
00:08 67.1 °F 64.4 °F 29.97 in Calm     91% 0.00 in 0 W/m2
00:12 67.1 °F 64.4 °F 29.97 in Calm     91% 0.00 in 0 W/m2
00:18 67.0 °F 64.3 °F 29.97 in Calm     91% 0.00 in 0 W/m2
00:22 67.0 °F 64.3 °F 29.97 in Calm     91% 0.00 in 0 W/m2
00:28 67.0 °F 64.6 °F 29.97 in Calm     92% 0.00 in 0 W/m2
00:34 66.8 °F 64.4 °F 29.97 in Calm     92% 0.00 in 0 W/m2
00:40 66.6 °F 64.2 °F 29.97 in Calm     92% 0.00 in 0 W/m2
00:46 66.5 °F 64.1 °F 29.97 in Calm     92% 0.00 in 0 W/m2
00:52 66.4 °F 64.0 °F 29.97 in Calm     92% 0.00 in 0 W/m2
00:58 66.2 °F 63.8 °F 29.97 in Calm     92% 0.00 in 0 W/m2
01:04 66.2 °F 63.8 °F 29.96 in Calm     92% 0.00 in 0 W/m2
01:10 66.1 °F 63.7 °F 29.96 in Calm     92% 0.00 in 0 W/m2
01:16 66.0 °F 63.6 °F 29.96 in Calm     92% 0.00 in 0 W/m2
01:22 65.9 °F 63.5 °F 29.95 in Calm     92% 0.00 in 0 W/m2
01:28 65.9 °F 63.5 °F 29.95 in Calm     92% 0.00 in 0 W/m2
01:34 65.7 °F 63.3 °F 29.95 in Calm     92% 0.00 in 0 W/m2
01:40 65.5 °F 63.1 °F 29.95 in Calm     92% 0.00 in 0 W/m2
01:46 65.5 °F 63.1 °F 29.95 in Calm     92% 0.00 in 0 W/m2
01:52 65.4 °F 63.3 °F 29.95 in Calm     93% 0.00 in 0 W/m2
01:58 65.3 °F 63.2 °F 29.95 in Calm     93% 0.00 in 0 W/m2
02:04 65.2 °F 62.8 °F 29.95 in Calm     92% 0.00 in 0 W/m2
02:10 65.3 °F 63.2 °F 29.95 in Calm     93% 0.00 in 0 W/m2
02:16 65.4 °F 63.3 °F 29.94 in Calm     93% 0.00 in 0 W/m2
02:22 65.4 °F 63.3 °F 29.94 in Calm     93% 0.00 in 0 W/m2
02:28 65.3 °F 63.2 °F 29.94 in Calm     93% 0.00 in 0 W/m2
02:34 65.2 °F 63.1 °F 29.94 in Calm     93% 0.00 in 0 W/m2
02:40 65.1 °F 63.0 °F 29.94 in Calm     93% 0.00 in 0 W/m2
02:46 65.1 °F 63.0 °F 29.93 in Calm     93% 0.00 in 0 W/m2
02:52 64.9 °F 62.8 °F 29.93 in Calm     93% 0.00 in 0 W/m2
02:58 64.8 °F 62.7 °F 29.92 in Calm     93% 0.00 in 0 W/m2
03:04 64.7 °F 62.6 °F 29.92 in Calm     93% 0.00 in 0 W/m2
03:10 64.5 °F 62.4 °F 29.92 in Calm     93% 0.00 in 0 W/m2
03:16 64.5 °F 62.4 °F 29.92 in Calm     93% 0.00 in 0 W/m2
03:22 64.6 °F 62.5 °F 29.91 in Calm     93% 0.00 in 0 W/m2
03:28 64.5 °F 62.4 °F 29.91 in Calm     93% 0.00 in 0 W/m2
03:34 64.5 °F 62.4 °F 29.91 in Calm   1.0 mph 93% 0.00 in 0 W/m2
03:40 64.5 °F 62.4 °F 29.91 in Calm     93% 0.00 in 0 W/m2
03:46 64.5 °F 62.4 °F 29.90 in Calm     93% 0.00 in 0 W/m2
03:52 64.5 °F 62.7 °F 29.90 in Calm     94% 0.00 in 0 W/m2
03:58 64.4 °F 62.6 °F 29.90 in Calm     94% 0.00 in 0 W/m2
04:04 64.4 °F 62.6 °F 29.89 in Calm     94% 0.00 in 0 W/m2
04:10 64.4 °F 62.6 °F 29.89 in Calm     94% 0.00 in 0 W/m2
04:16 64.4 °F 62.6 °F 29.89 in Calm     94% 0.00 in 0 W/m2
04:22 64.4 °F 62.6 °F 29.89 in Calm     94% 0.00 in 0 W/m2
04:28 64.3 °F 62.5 °F 29.88 in Calm   2.0 mph 94% 0.00 in 0 W/m2
04:34 64.3 °F 62.5 °F 29.88 in Calm     94% 0.00 in 0 W/m2
04:40 64.2 °F 62.4 °F 29.88 in Calm     94% 0.00 in 0 W/m2
04:46 64.1 °F 62.3 °F 29.88 in Calm     94% 0.00 in 0 W/m2
04:52 64.2 °F 62.4 °F 29.88 in Calm     94% 0.00 in 0 W/m2
04:58 64.3 °F 62.5 °F 29.88 in Calm   1.0 mph 94% 0.00 in 0 W/m2
05:04 64.3 °F 62.5 °F 29.88 in Calm     94% 0.00 in 0 W/m2
05:10 64.1 °F 62.3 °F 29.88 in Calm     94% 0.00 in 0 W/m2
05:16 64.1 °F 62.3 °F 29.88 in Calm     94% 0.00 in 0 W/m2
05:22 64.2 °F 62.4 °F 29.88 in Calm     94% 0.00 in 0 W/m2
05:28 64.2 °F 62.4 °F 29.87 in Calm     94% 0.00 in 0 W/m2
05:34 64.1 °F 62.3 °F 29.87 in Calm     94% 0.00 in 0 W/m2
05:40 64.4 °F 62.6 °F 29.87 in Calm     94% 0.00 in 0 W/m2
05:46 64.6 °F 62.8 °F 29.87 in Calm     94% 0.00 in 0 W/m2
05:52 65.0 °F 63.2 °F 29.87 in Calm     94% 0.00 in 0 W/m2
05:58 65.1 °F 63.3 °F 29.87 in Calm     94% 0.00 in 0 W/m2
06:04 65.1 °F 63.3 °F 29.87 in Calm     94% 0.00 in 0 W/m2
06:10 65.1 °F 63.3 °F 29.87 in Calm   2.0 mph 94% 0.00 in 0 W/m2
06:16 65.2 °F 63.4 °F 29.86 in Calm   2.0 mph 94% 0.00 in 0 W/m2
06:22 65.4 °F 63.6 °F 29.87 in Calm     94% 0.00 in 0 W/m2
06:28 65.5 °F 63.7 °F 29.87 in Calm     94% 0.00 in 0 W/m2
06:36 65.5 °F 63.7 °F 29.86 in Calm     94% 0.00 in 0 W/m2
06:42 65.6 °F 63.8 °F 29.86 in Calm     94% 0.00 in 5 W/m2
06:48 65.7 °F 63.9 °F 29.86 in Calm     94% 0.00 in 7 W/m2
06:54 65.7 °F 63.9 °F 29.86 in Calm     94% 0.00 in 11 W/m2
07:00 65.8 °F 64.0 °F 29.86 in Calm     94% 0.00 in 21 W/m2
07:06 65.9 °F 64.1 °F 29.85 in Calm     94% 0.00 in 23 W/m2
07:12 66.0 °F 64.2 °F 29.85 in Calm     94% 0.00 in 35 W/m2
07:18 66.3 °F 64.5 °F 29.85 in Calm     94% 0.00 in 74 W/m2
07:24 66.6 °F 64.8 °F 29.85 in Calm     94% 0.00 in 100 W/m2
07:30 66.9 °F 65.1 °F 29.84 in Calm   1.0 mph 94% 0.00 in 109 W/m2
07:36 67.4 °F 65.6 °F 29.84 in Calm   1.0 mph 94% 0.00 in 77 W/m2
07:42 67.7 °F 65.9 °F 29.84 in Calm     94% 0.00 in 139 W/m2
07:48 68.4 °F 66.6 °F 29.84 in Calm     94% 0.00 in 148 W/m2
07:54 69.1 °F 67.3 °F 29.84 in Calm     94% 0.00 in 155 W/m2
08:02 69.9 °F 67.8 °F 29.84 in Calm     93% 0.00 in 105 W/m2
08:08 70.3 °F 68.2 °F 29.84 in Calm     93% 0.00 in 84 W/m2
08:14 70.5 °F 68.1 °F 29.83 in Calm     92% 0.00 in 60 W/m2
08:20 71.1 °F 69.0 °F 29.83 in Calm     93% 0.00 in 174 W/m2
08:26 73.8 °F 71.0 °F 29.83 in South 2.0 mph 6.0 mph 91% 0.00 in 155 W/m2
08:32 75.9 °F 70.7 °F 29.83 in South 3.0 mph 3.0 mph 84% 0.00 in 130 W/m2
08:38 76.8 °F 70.2 °F 29.83 in SW 3.0 mph 6.0 mph 80% 0.00 in 105 W/m2
08:44 77.1 °F 70.1 °F 29.82 in SSW 3.0 mph 4.0 mph 79% 0.00 in 116 W/m2
08:50 77.6 °F 70.2 °F 29.81 in SSW 3.0 mph 3.0 mph 78% 0.00 in 134 W/m2
08:56 78.2 °F 70.0 °F 29.81 in SSW 4.0 mph 7.0 mph 76% 0.00 in 111 W/m2
09:02 78.8 °F 70.2 °F 29.81 in SW 4.0 mph 6.0 mph 75% 0.00 in 97 W/m2
09:08 79.2 °F 70.2 °F 29.81 in South 4.0 mph 6.0 mph 74% 0.00 in 134 W/m2
09:16 79.9 °F 70.5 °F 29.80 in SW 4.0 mph 4.0 mph 73% 0.00 in 118 W/m2
09:22 80.6 °F 70.7 °F 29.80 in SSW 3.0 mph 5.0 mph 72% 0.00 in 176 W/m2
09:28 81.0 °F 70.3 °F 29.80 in SSW 4.0 mph 9.0 mph 70% 0.00 in 469 W/m2
09:34 81.6 °F 69.6 °F 29.80 in South 5.0 mph 6.0 mph 67% 0.00 in 490 W/m2
09:40 82.1 °F 69.6 °F 29.80 in South 5.0 mph 5.0 mph 66% 0.00 in 506 W/m2
09:46 82.4 °F 69.4 °F 29.79 in West 5.0 mph 5.0 mph 65% 0.00 in 520 W/m2
09:52 82.8 °F 69.4 °F 29.79 in SW 5.0 mph 6.0 mph 64% 0.00 in 533 W/m2
09:58 83.0 °F 70.5 °F 29.79 in SW 5.0 mph 6.0 mph 66% 0.00 in 584 W/m2
10:04 83.3 °F 68.9 °F 29.78 in SSW 5.0 mph 7.0 mph 62% 0.00 in 504 W/m2
10:10 83.2 °F 69.3 °F 29.78 in SSE 6.0 mph 6.0 mph 63% 0.00 in 248 W/m2
10:16 82.5 °F 69.1 °F 29.78 in SSW 6.0 mph 7.0 mph 64% 0.00 in 167 W/m2
10:20 82.0 °F 68.6 °F 29.78 in South 5.0 mph 9.0 mph 64% 0.00 in 174 W/m2
10:26 81.7 °F 69.2 °F 29.78 in SW 5.0 mph 9.0 mph 66% 0.00 in 265 W/m2
10:32 81.9 °F 69.4 °F 29.78 in SW 6.0 mph 6.0 mph 66% 0.00 in 636 W/m2
10:38 82.7 °F 69.7 °F 29.78 in SW 5.0 mph 10.0 mph 65% 0.00 in 359 W/m2
10:44 83.0 °F 69.1 °F 29.78 in South 6.0 mph 9.0 mph 63% 0.00 in 751 W/m2
10:50 83.4 °F 69.5 °F 29.78 in SSW 7.0 mph 7.0 mph 63% 0.00 in 348 W/m2
10:56 83.0 °F 69.1 °F 29.77 in SW 5.0 mph 7.0 mph 63% 0.00 in 411 W/m2
11:02 83.4 °F 69.9 °F 29.78 in South 6.0 mph 6.0 mph 64% 0.00 in 598 W/m2
11:08 84.3 °F 71.2 °F 29.77 in West 5.0 mph 9.0 mph 65% 0.00 in 749 W/m2
11:14 84.4 °F 70.0 °F 29.77 in SSW 6.0 mph 9.0 mph 62% 0.00 in 796 W/m2
11:18 84.4 °F 70.0 °F 29.77 in SW 6.0 mph 9.0 mph 62% 0.00 in 378 W/m2
11:24 84.6 °F 70.1 °F 29.77 in SSE 6.0 mph 10.0 mph 62% 0.00 in 352 W/m2
11:30 84.3 °F 71.2 °F 29.77 in SSE 7.0 mph 7.0 mph 65% 0.00 in 828 W/m2
11:36 84.5 °F 69.1 °F 29.76 in SE 6.0 mph 10.0 mph 60% 0.00 in 341 W/m2
11:42 84.7 °F 70.2 °F 29.76 in WSW 7.0 mph 11.0 mph 62% 0.00 in 907 W/m2
11:48 84.6 °F 69.2 °F 29.76 in SSW 7.0 mph 11.0 mph 60% 0.00 in 330 W/m2
11:54 84.3 °F 68.4 °F 29.75 in WSW 7.0 mph 7.0 mph 59% 0.00 in 302 W/m2
12:00 84.9 °F 69.9 °F 29.75 in SE 5.0 mph 5.0 mph 61% 0.00 in 527 W/m2
12:06 84.9 °F 69.9 °F 29.75 in SW 6.0 mph 9.0 mph 61% 0.00 in 1085 W/m2
12:12 85.3 °F 69.8 °F 29.74 in WSW 8.0 mph 9.0 mph 60% 0.00 in 473 W/m2
12:18 84.5 °F 69.1 °F 29.74 in South 7.0 mph 10.0 mph 60% 0.00 in 264 W/m2
12:24 84.0 °F 69.1 °F 29.74 in SSW 7.0 mph 8.0 mph 61% 0.00 in 332 W/m2
12:30 84.3 °F 69.4 °F 29.73 in SSW 6.0 mph 6.0 mph 61% 0.00 in 469 W/m2
12:36 85.4 °F 70.4 °F 29.73 in SW 6.0 mph 9.0 mph 61% 0.00 in 652 W/m2
12:44 84.8 °F 69.9 °F 29.72 in SSE 6.0 mph 8.0 mph 61% 0.00 in 301 W/m2
12:50 84.2 °F 69.8 °F 29.72 in WSW 7.0 mph 7.0 mph 62% 0.00 in 329 W/m2
12:56 84.2 °F 69.8 °F 29.70 in SSE 6.0 mph 7.0 mph 62% 0.00 in 374 W/m2
13:02 85.0 °F 69.6 °F 29.70 in SSW 7.0 mph 7.0 mph 60% 0.00 in 385 W/m2
13:08 85.7 °F 70.2 °F 29.70 in SSW 7.0 mph 7.0 mph 60% 0.00 in 417 W/m2
13:16 85.7 °F 70.7 °F 29.69 in South 5.0 mph 7.0 mph 61% 0.00 in 429 W/m2
13:22 86.0 °F 70.0 °F 29.69 in SSW 6.0 mph 8.0 mph 59% 0.00 in 622 W/m2
13:28 86.7 °F 70.2 °F 29.68 in SW 8.0 mph 15.0 mph 58% 0.00 in 461 W/m2
13:34 87.5 °F 69.9 °F 29.67 in SSW 9.0 mph 12.0 mph 56% 0.00 in 962 W/m2
13:40 86.9 °F 69.3 °F 29.67 in SW 8.0 mph 8.0 mph 56% 0.00 in 403 W/m2
13:46 87.6 °F 70.0 °F 29.67 in WSW 7.0 mph 10.0 mph 56% 0.00 in 1060 W/m2
13:52 86.4 °F 68.3 °F 29.66 in SSE 8.0 mph 10.0 mph 55% 0.00 in 304 W/m2
13:58 85.7 °F 68.7 °F 29.66 in SSE 9.0 mph 16.0 mph 57% 0.00 in 197 W/m2
14:04 85.4 °F 67.9 °F 29.65 in SSE 7.0 mph 8.0 mph 56% 0.00 in 246 W/m2
14:10 85.4 °F 67.9 °F 29.64 in South 8.0 mph 8.0 mph 56% 0.00 in 359 W/m2
14:16 85.6 °F 67.6 °F 29.64 in SW 8.0 mph 12.0 mph 55% 0.00 in 255 W/m2
14:22 85.6 °F 68.1 °F 29.64 in South 8.0 mph 8.0 mph 56% 0.00 in 274 W/m2
14:28 85.7 °F 68.2 °F 29.63 in SSE 8.0 mph 8.0 mph 56% 0.00 in 360 W/m2
14:34 85.6 °F 68.1 °F 29.63 in SW 8.0 mph 8.0 mph 56% 0.00 in 223 W/m2
14:40 85.4 °F 67.9 °F 29.63 in SSW 7.0 mph 7.0 mph 56% 0.00 in 104 W/m2
14:46 85.4 °F 67.4 °F 29.63 in South 8.0 mph 11.0 mph 55% 0.00 in 77 W/m2
14:52 85.3 °F 67.3 °F 29.63 in SSW 7.0 mph 9.0 mph 55% 0.00 in 35 W/m2
14:58 85.3 °F 66.8 °F 29.63 in SSW 6.0 mph 9.0 mph 54% 0.00 in 23 W/m2
15:04 85.2 °F 66.7 °F 29.64 in SW 7.0 mph 13.0 mph 54% 0.00 in 12 W/m2
15:10 82.3 °F 67.0 °F 29.67 in NW 5.0 mph 5.0 mph 60% 0.00 in 5 W/m2
15:22 71.2 °F 67.1 °F 29.67 in SW 4.0 mph 5.0 mph 87% 4.47 in 0 W/m2
15:28 70.8 °F 67.4 °F 29.65 in SSW 5.0 mph 12.0 mph 89% 4.68 in 9 W/m2
15:34 70.4 °F 66.7 °F 29.66 in South 8.0 mph 9.0 mph 88% 0.21 in 21 W/m2
15:40 70.6 °F 67.5 °F 29.66 in WSW 4.0 mph 4.0 mph 90% 0.17 in 37 W/m2
15:46 70.9 °F 68.1 °F 29.63 in WSW 2.0 mph 7.0 mph 91% 0.19 in 153 W/m2
15:52 71.4 °F 68.6 °F 29.64 in WSW 2.0 mph 3.0 mph 91% 0.06 in 192 W/m2
15:58 71.8 °F 69.0 °F 29.64 in WSW 2.0 mph 3.0 mph 91% 0.04 in 156 W/m2
16:04 71.8 °F 69.0 °F 29.64 in WSW 2.0 mph 5.0 mph 91% 0.00 in 76 W/m2
16:10 71.7 °F 69.3 °F 29.64 in SW 2.0 mph 2.0 mph 92% 0.00 in 128 W/m2
16:16 71.9 °F 69.4 °F 29.64 in SW 1.0 mph 2.0 mph 92% 0.00 in 49 W/m2
16:22 72.0 °F 69.5 °F 29.64 in Calm   1.0 mph 92% 0.00 in 18 W/m2
16:28 71.9 °F 69.4 °F 29.66 in SW 2.0 mph 3.0 mph 92% 0.00 in 28 W/m2
16:34 71.9 °F 69.4 °F 29.65 in South 3.0 mph 3.0 mph 92% 0.00 in 35 W/m2
16:40 72.0 °F 69.5 °F 29.63 in South 3.0 mph 3.0 mph 92% 0.00 in 32 W/m2
16:46 72.1 °F 69.6 °F 29.63 in SSW 2.0 mph 5.0 mph 92% 0.00 in 86 W/m2
16:52 72.3 °F 69.8 °F 29.63 in SSW 2.0 mph 6.0 mph 92% 0.00 in 39 W/m2
16:58 72.4 °F 69.9 °F 29.63 in SSW 3.0 mph 6.0 mph 92% 0.00 in 37 W/m2
17:04 72.4 °F 69.9 °F 29.63 in SSW 1.0 mph 2.0 mph 92% 0.00 in 28 W/m2
17:10 72.4 °F 69.9 °F 29.65 in NW 1.0 mph 4.0 mph 92% 0.00 in 9 W/m2
17:16 72.4 °F 70.3 °F 29.68 in West 2.0 mph 4.0 mph 93% 7.68 in 5 W/m2
17:22 71.9 °F 69.4 °F 29.65 in West 2.0 mph 3.0 mph 92% 0.34 in 23 W/m2
17:28 71.1 °F 68.7 °F 29.63 in SSW 3.0 mph 3.0 mph 92% 0.19 in 39 W/m2
17:34 71.1 °F 68.7 °F 29.63 in WSW 2.0 mph 3.0 mph 92% 0.07 in 51 W/m2
17:40 71.0 °F 68.6 °F 29.62 in SW 2.0 mph 2.0 mph 92% 0.05 in 67 W/m2
17:46 71.1 °F 68.7 °F 29.63 in SW 2.0 mph 2.0 mph 92% 0.05 in 62 W/m2
17:52 71.2 °F 68.8 °F 29.64 in WSW 1.0 mph 2.0 mph 92% 0.04 in 32 W/m2
17:58 71.1 °F 68.7 °F 29.65 in West 2.0 mph 5.0 mph 92% 0.00 in 40 W/m2
18:04 71.0 °F 68.6 °F 29.65 in SSW 2.0 mph 7.0 mph 92% 0.00 in 28 W/m2
18:10 70.7 °F 68.3 °F 29.64 in WSW 3.0 mph 3.0 mph 92% 0.00 in 21 W/m2
18:16 70.4 °F 68.0 °F 29.64 in SSW 3.0 mph 5.0 mph 92% 0.00 in 19 W/m2
18:22 70.1 °F 67.7 °F 29.64 in SSW 4.0 mph 5.0 mph 92% 0.00 in 14 W/m2
18:28 70.0 °F 67.6 °F 29.64 in SSW 4.0 mph 5.0 mph 92% 0.00 in 16 W/m2
18:34 69.8 °F 67.4 °F 29.64 in SW 4.0 mph 7.0 mph 92% 0.04 in 18 W/m2
18:40 69.7 °F 67.3 °F 29.63 in SW 4.0 mph 4.0 mph 92% 0.04 in 18 W/m2
18:46 69.7 °F 67.3 °F 29.63 in South 3.0 mph 6.0 mph 92% 0.04 in 30 W/m2
18:52 69.9 °F 67.5 °F 29.63 in South 3.0 mph 3.0 mph 92% 0.00 in 32 W/m2
18:58 70.0 °F 67.9 °F 29.64 in South 3.0 mph 7.0 mph 93% 0.00 in 26 W/m2
19:04 70.1 °F 67.7 °F 29.64 in SW 5.0 mph 8.0 mph 92% 0.00 in 28 W/m2
19:10 70.1 °F 67.7 °F 29.64 in SSW 5.0 mph 6.0 mph 92% 0.00 in 42 W/m2
19:18 69.8 °F 67.1 °F 29.64 in SSW 5.0 mph 7.0 mph 91% 0.00 in 40 W/m2
19:24 69.8 °F 66.7 °F 29.64 in SSW 5.0 mph 8.0 mph 90% 0.00 in 37 W/m2
19:30 69.8 °F 66.7 °F 29.64 in SW 5.0 mph 5.0 mph 90% 0.00 in 30 W/m2
19:36 69.8 °F 66.7 °F 29.64 in SW 3.0 mph 7.0 mph 90% 0.00 in 23 W/m2
19:42 69.8 °F 66.7 °F 29.64 in South 4.0 mph 4.0 mph 90% 0.00 in 12 W/m2
19:48 69.9 °F 66.5 °F 29.64 in SSW 4.0 mph 4.0 mph 89% 0.00 in 5 W/m2
19:54 70.0 °F 66.6 °F 29.64 in SSW 4.0 mph 5.0 mph 89% 0.00 in 0 W/m2
20:00 70.1 °F 66.4 °F 29.64 in South 4.0 mph 4.0 mph 88% 0.00 in 0 W/m2
20:06 70.2 °F 66.5 °F 29.64 in SW 3.0 mph 4.0 mph 88% 0.00 in 0 W/m2
20:12 70.3 °F 66.6 °F 29.64 in WSW 4.0 mph 6.0 mph 88% 0.00 in 0 W/m2
20:14 70.3 °F 66.6 °F 29.64 in SSW 4.0 mph 6.0 mph 88% 0.00 in 0 W/m2
20:20 70.4 °F 66.3 °F 29.64 in SW 4.0 mph 5.0 mph 87% 0.00 in 0 W/m2
20:26 70.4 °F 66.3 °F 29.63 in SSW 4.0 mph 9.0 mph 87% 0.00 in 0 W/m2
20:32 70.5 °F 66.4 °F 29.64 in SW 5.0 mph 5.0 mph 87% 0.00 in 0 W/m2
20:38 70.6 °F 66.5 °F 29.64 in SW 4.0 mph 5.0 mph 87% 0.00 in 0 W/m2
20:44 70.6 °F 66.5 °F 29.64 in SW 4.0 mph 7.0 mph 87% 0.00 in 0 W/m2
20:50 70.6 °F 66.5 °F 29.64 in WSW 4.0 mph 4.0 mph 87% 0.00 in 0 W/m2
20:56 70.6 °F 66.5 °F 29.64 in SSW 4.0 mph 7.0 mph 87% 0.00 in 0 W/m2
21:02 70.5 °F 66.4 °F 29.63 in SW 3.0 mph 3.0 mph 87% 0.00 in 0 W/m2
21:08 70.4 °F 66.3 °F 29.63 in WSW 2.0 mph 4.0 mph 87% 0.00 in 0 W/m2
21:14 70.2 °F 66.1 °F 29.63 in SW 2.0 mph 4.0 mph 87% 0.00 in 0 W/m2
21:22 70.1 °F 66.0 °F 29.63 in SW 2.0 mph 3.0 mph 87% 0.00 in 0 W/m2
21:28 70.1 °F 66.0 °F 29.63 in SW 3.0 mph 3.0 mph 87% 0.00 in 0 W/m2
21:30 70.1 °F 66.0 °F 29.63 in WSW 3.0 mph 4.0 mph 87% 0.00 in 0 W/m2
21:36 70.2 °F 66.1 °F 29.63 in SW 3.0 mph 4.0 mph 87% 0.00 in 0 W/m2
21:42 70.2 °F 66.1 °F 29.63 in SSW 3.0 mph 3.0 mph 87% 0.00 in 0 W/m2
21:48 70.3 °F 66.2 °F 29.63 in WSW 3.0 mph 5.0 mph 87% 0.00 in 0 W/m2
21:54 70.4 °F 66.3 °F 29.64 in South 3.0 mph 9.0 mph 87% 0.00 in 0 W/m2
22:00 70.3 °F 66.2 °F 29.64 in SW 3.0 mph 3.0 mph 87% 0.00 in 0 W/m2
22:06 70.1 °F 66.0 °F 29.64 in WSW 2.0 mph 6.0 mph 87% 0.00 in 0 W/m2
22:12 69.6 °F 65.6 °F 29.63 in West 2.0 mph 4.0 mph 87% 0.00 in 0 W/m2
22:18 69.2 °F 65.5 °F 29.64 in SW 2.0 mph 4.0 mph 88% 0.00 in 0 W/m2
22:24 69.0 °F 65.3 °F 29.64 in WSW 1.0 mph 2.0 mph 88% 0.00 in 0 W/m2
22:30 68.8 °F 65.1 °F 29.64 in WSW 2.0 mph 2.0 mph 88% 0.00 in 0 W/m2
22:36 68.6 °F 64.9 °F 29.65 in SW 2.0 mph 3.0 mph 88% 0.00 in 0 W/m2
22:42 68.4 °F 64.4 °F 29.65 in WSW 2.0 mph 2.0 mph 87% 0.00 in 0 W/m2
22:48 68.2 °F 64.2 °F 29.65 in WSW 2.0 mph 6.0 mph 87% 0.00 in 0 W/m2
22:54 68.1 °F 64.1 °F 29.65 in SSW 2.0 mph 5.0 mph 87% 0.00 in 0 W/m2
23:00 68.0 °F 64.0 °F 29.65 in West 2.0 mph 2.0 mph 87% 0.00 in 0 W/m2
23:06 67.9 °F 63.9 °F 29.66 in WSW 2.0 mph 7.0 mph 87% 0.00 in 0 W/m2
23:12 67.9 °F 63.9 °F 29.66 in SSW 1.0 mph 6.0 mph 87% 0.00 in 0 W/m2
23:18 67.8 °F 63.8 °F 29.65 in WSW 2.0 mph 6.0 mph 87% 0.00 in 0 W/m2
23:24 67.7 °F 63.7 °F 29.65 in West 2.0 mph 2.0 mph 87% 0.00 in 0 W/m2
23:28 67.6 °F 63.6 °F 29.66 in WSW 1.0 mph 2.0 mph 87% 0.00 in 0 W/m2
23:34 67.4 °F 63.4 °F 29.66 in SW 1.0 mph 2.0 mph 87% 0.00 in 0 W/m2
23:40 67.3 °F 63.6 °F 29.65 in SW 2.0 mph 2.0 mph 88% 0.00 in 0 W/m2
23:46 67.2 °F 63.5 °F 29.66 in SW 2.0 mph 2.0 mph 88% 0.00 in 0 W/m2
23:52 67.0 °F 63.3 °F 29.66 in WSW 1.0 mph 3.0 mph 88% 0.00 in 0 W/m2
23:58 66.9 °F 63.2 °F 29.66 in WSW 2.0 mph 5.0 mph 88% 0.00 in 0 W/m2
Country Meadow, Clay, NY, USA
Compliments of Weather Underground - 2 mb